Terminal Aerodrome Forecast
Issued by NWS

Home | Current Version | Previous Version | Text Only | Print | Product List | Glossary Off
Versions: 1 2 3 4 5 6 7 8 9 10 11 12 13

005
FTUS43 KMPX 111136
TAFAXN
TAF
KAXN 111136Z 1112/1212 27008KT P6SM VCSH OVC060
     FM111300 31014G23KT P6SM VCSH OVC010
     FM111600 34022G32KT P6SM OVC012
     FM120000 33020G27KT P6SM SCT015
     FM120400 33012G18KT P6SM SKC
     FM120800 31009KT P6SM SCT080=

USA.gov is the U.S. government's official web portal to all federal, state and local government web resources and services.